Pula, Croatia

3:00 AM CET on December 23, 2014 (GMT +0100)
Astronomical observatory Pula | Change Station
CLOSE
Current Station
Personal Weather Station
Location: Pula - Istra, CROATIA
Elevation: 92 ft
Nearby Weather Stations

Elev 92 ft 44.87 °N, 13.85 °E | Updated 40 seconds ago

Overcast
Overcast
43.5 °F
Feels Like 44 °F
N
0.7
Wind Variable Wind from SE
Gusts 3.1 mph

Today
High -- | Low -- °F
--% Chance of Precip.
Yesterday
High -- | Low -- °F
Precip. -- in
7:39 AM 4:26 PM
New Moon, 1% visible
Pressure 30.36 in
Visibility 3.7 miles
Clouds Overcast 1100 ft
Windchill 44 °F
Dew Point 42 °F
Humidity 96%
Rainfall 0.00 in
Snow Depth Not available.
UV 0 out of 12
Pollen Not available.
Air Quality Not available.
Flu Activity Not available.
METAR LDPL 230130Z VRB02KT 6000 OVC011 07/06 Q1028

More Conditions Fewer Conditions

Pressure 30.36 in
Visibility 3.7 miles
Clouds Overcast 1100 ft
Windchill 44 °F
Dew Point 42 °F
Humidity 96%
Rainfall 0.00 in
Snow Depth Not available.
UV 0 out of 12
Pollen Not available.
Air Quality Not available.
Flu Activity Not available.
METAR LDPL 230130Z VRB02KT 6000 OVC011 07/06 Q1028

More Conditions Fewer Conditions

10-Day Weather Forecast

Almanac

Astronomy

Dec. 23, 2014 Rise Set
Actual Time
Civil Twilight
Nautical Twilight
Astronomical Twilight
Moon
Length of Visible Light
Length of Day
Tomorrow will be .
, % of the Moon is Illuminated

Today's Extremes

Country Highs Country Lows

Community

WunderPhotos

Upload Photos

1,779,759 photos uploaded!

WunderBlogs® & News

Nearby

Air Quality

  Air Quality AQ Index Pollutant
Not available.

Snow Depth

Station Depth Elevation

Earthquake Activity

City Distance Mag. Time & Date
Minimum magnitude displayed is 2.5.

Coastal Water Temperatures

Place Temperature

Nearby Weather Stations